La Tontouta International Airport
NWWW : now visible

Airfield :











YOU CAN JOIN US ON...

 
LOGIN :

Register | Disclaimer

   EN    FR    IT 

 









Legend :    VFR   Marginal VFR   IFR   Intensive IFR   Very Intensive IFR
Visi :
Ceiling :
>= 8 km
>= 3000ft
5 to 8 km
1000 to 3000 ft
1500m to 5 km
500 to 1000 ft
800 to 1500m
200 to 500 ft
< 800m
< 200 ft
Symbols :   Thunderstorms  Fog  Heavy snow  Heavy precipitations  Wind > 20 kt






- Airport Elevation : 52 ft
- IATA code : NOU


NWWW - La Tontouta International

CURRENT METAR :
  • 171200Z AUTO 14006KT 9999 SCT031/// SCT042/// OVC048/// ///TCU 24/23 Q1011 TEMPO 4500 SHRA

EXPIRED METARs :
  • 171130Z AUTO 14006KT 9999 -RA BKN052/// OVC062/// ///TCU 24/23 Q1011 TEMPO 4500 SHRA
  • 171100Z AUTO 14005KT 9999 FEW054/// BKN066/// OVC096/// ///TCU 24/23 Q1011 TEMPO 4000 SHRA FEW025CB
  • 171030Z AUTO 13006KT 9999 SCT054/// SCT068/// OVC100/// ///TCU 25/23 Q1011 TEMPO 4000 SHRA FEW025CB
  • 171000Z AUTO VRB02KT 9999 -RA ///TCU 25/23 Q1010 BECMG FEW030 SCT050
  • 170930Z AUTO 10005KT 9999 SCT064 OVC074 26/23 Q1010 NOSIG

Expired Forecast.
NFFF FIR / Oceania



MET'MAP, your aeronautical weather chart ! - Copyright ORBIFLY December 2007 - Disclaimer

ORBIFLY MET'MAP TEAM :

Programming & Development : Alexandra Zaïnal
Concept & original design : Baudouin d'Aumeries
Assistance for programming : Marc-Olivier Méhu
Technical & hardware support : Manuel Goepfert

Contact : metmap@orbifly.com




SOURCES & CREDITS :

   NOAA       Earth
Advisory